Time;durP1;ratioP1;P1;durP2;ratioP2;P2;SDS_P1;SDS_P2;PMS_P1;PMS_P2;Temp;Humidity;BMP_temperature;BMP_pressure;BME280_temperature;BME280_humidity;BME280_pressure;Samples;Min_cycle;Max_cycle;Signal;HPM_P1;HPM_P2
2021/07/02 00:02:19;;;;;;;61.53;40.67;;;;;;;17.82;78.88;101372.56;3569824;40;20230;-78
2021/07/02 00:04:44;;;;;;;51.63;37.63;;;;;;;17.88;78.25;101375.16;3570585;40;20316;-77
2021/07/02 00:07:09;;;;;;;51.10;35.70;;;;;;;17.87;78.06;101364.78;3569621;40;20235;-77
2021/07/02 00:09:35;;;;;;;52.63;36.87;;;;;;;17.82;78.33;101366.53;3570589;40;20227;-80
2021/07/02 00:12:00;;;;;;;46.23;31.53;;;;;;;17.93;78.28;101370.81;3570394;40;20217;-77
2021/07/02 00:14:25;;;;;;;43.73;32.67;;;;;;;17.89;78.11;101370.81;3581187;40;20592;-78
2021/07/02 00:16:51;;;;;;;44.00;32.13;;;;;;;17.85;78.12;101367.38;3573838;40;20223;-76
2021/07/02 00:19:16;;;;;;;42.87;31.57;;;;;;;17.80;78.20;101371.72;3569426;40;20238;-77
2021/07/02 00:21:41;;;;;;;43.80;32.30;;;;;;;17.76;78.57;101366.50;3570728;40;20242;-78
2021/07/02 00:24:07;;;;;;;42.77;29.77;;;;;;;17.72;78.45;101360.47;3570812;40;20245;-77
2021/07/02 00:26:32;;;;;;;44.03;30.73;;;;;;;17.67;78.31;101362.22;3571292;40;20238;-78
2021/07/02 00:28:57;;;;;;;44.07;30.13;;;;;;;17.82;77.78;101362.19;3571271;40;20238;-78
2021/07/02 00:31:23;;;;;;;39.60;28.10;;;;;;;17.80;77.93;101363.94;3571160;40;20548;-78
2021/07/02 00:33:48;;;;;;;40.03;30.70;;;;;;;17.68;78.50;101360.50;3571211;40;20246;-78
2021/07/02 00:36:14;;;;;;;43.43;30.87;;;;;;;17.68;78.47;101361.34;3571327;40;20230;-77
2021/07/02 00:38:39;;;;;;;42.40;28.30;;;;;;;17.72;78.61;101360.47;3571777;40;20214;-77
2021/07/02 00:41:04;;;;;;;41.20;30.93;;;;;;;17.66;78.31;101360.50;3571165;40;20238;-77
2021/07/02 00:43:29;;;;;;;44.43;31.00;;;;;;;17.72;78.83;101355.31;3571518;40;20215;-78
2021/07/02 00:45:55;;;;;;;49.80;33.43;;;;;;;17.63;78.61;101364.78;3571061;40;20225;-77
2021/07/02 00:48:20;;;;;;;43.03;31.60;;;;;;;17.62;78.49;101358.78;3570741;40;20470;-80
2021/07/02 00:50:46;;;;;;;45.77;30.33;;;;;;;17.69;78.42;101360.47;3570428;40;20242;-78
2021/07/02 00:53:12;;;;;;;40.80;27.57;;;;;;;17.75;77.58;101357.91;3570227;40;20217;-77
2021/07/02 00:55:38;;;;;;;39.15;27.98;;;;;;;17.83;77.29;101357.88;3571337;40;20226;-81
2021/07/02 00:58:06;;;;;;;38.80;27.33;;;;;;;17.68;77.95;101365.69;3573431;40;20223;-78
2021/07/02 01:00:32;;;;;;;46.30;31.30;;;;;;;17.61;78.18;101366.53;3570504;40;20238;-78
2021/07/02 01:02:57;;;;;;;53.83;34.50;;;;;;;17.57;78.34;101365.69;3570334;40;20244;-77
2021/07/02 01:05:23;;;;;;;51.53;33.70;;;;;;;17.77;77.99;101366.53;3570954;40;20219;-77
2021/07/02 01:07:48;;;;;;;52.83;38.30;;;;;;;17.58;77.83;101362.22;3571722;40;20219;-77
2021/07/02 01:10:17;;;;;;;58.30;40.47;;;;;;;17.46;78.41;101357.03;3578329;40;20241;-77
2021/07/02 01:12:42;;;;;;;58.90;40.40;;;;;;;17.52;77.94;101361.38;3581462;40;20230;-77
2021/07/02 01:15:22;;;;;;;55.93;41.03;;;;;;;17.54;78.28;101359.66;3582215;40;20457;-78
2021/07/02 01:17:47;;;;;;;57.40;39.00;;;;;;;17.63;77.97;101360.50;3581146;40;20230;-77
2021/07/02 01:20:13;;;;;;;52.67;37.20;;;;;;;17.64;77.90;101359.63;3580627;40;20245;-78
2021/07/02 01:22:39;;;;;;;55.83;38.87;;;;;;;17.49;78.76;101363.94;3579806;40;20310;-78
2021/07/02 01:25:05;;;;;;;53.20;37.67;;;;;;;17.56;78.03;101369.16;3579027;40;20317;-78
2021/07/02 01:27:31;;;;;;;59.60;37.47;;;;;;;17.59;77.73;101371.72;3578412;40;20225;-78
2021/07/02 01:29:56;;;;;;;49.93;36.90;;;;;;;17.45;78.52;101365.69;3579678;40;20237;-78
2021/07/02 01:32:21;;;;;;;57.30;38.80;;;;;;;17.36;78.94;101372.56;3579750;40;20222;-78
2021/07/02 01:34:46;;;;;;;56.37;39.07;;;;;;;17.47;77.87;101368.28;3580895;40;20225;-78
2021/07/02 01:37:12;;;;;;;61.63;42.80;;;;;;;17.51;78.00;101380.38;3580207;40;20322;-78
2021/07/02 01:39:38;;;;;;;71.70;44.23;;;;;;;17.47;77.73;101376.03;3579790;40;20236;-78
2021/07/02 01:42:08;;;;;;;75.67;44.27;;;;;;;17.40;78.24;101382.09;3578231;40;20245;-78
2021/07/02 01:44:36;;;;;;;67.83;45.47;;;;;;;17.42;77.74;101389.00;3579920;40;20234;-77
2021/07/02 01:47:01;;;;;;;70.37;43.80;;;;;;;17.28;78.48;101392.41;3580043;40;20240;-78
2021/07/02 01:49:27;;;;;;;70.63;44.30;;;;;;;17.19;78.85;101393.28;3579540;40;20234;-78
2021/07/02 01:51:52;;;;;;;72.53;42.87;;;;;;;17.15;79.11;101391.53;3573889;40;20230;-77
2021/07/02 01:54:17;;;;;;;64.90;42.83;;;;;;;17.15;78.81;101393.25;3568970;40;20266;-78
2021/07/02 01:56:48;;;;;;;56.57;37.10;;;;;;;17.28;78.63;101395.00;3570279;40;20225;-78
2021/07/02 01:59:15;;;;;;;52.17;35.87;;;;;;;17.28;77.85;101393.28;3570184;40;20226;-78
2021/07/02 02:01:40;;;;;;;47.27;32.80;;;;;;;17.36;77.92;101395.88;3574288;40;20261;-78
2021/07/02 02:04:05;;;;;;;46.33;31.20;;;;;;;17.33;78.15;101398.44;3580105;40;20355;-78
2021/07/02 02:06:31;;;;;;;41.63;31.30;;;;;;;17.29;78.14;101405.34;3580004;40;20245;-78
2021/07/02 02:08:56;;;;;;;41.10;26.20;;;;;;;17.29;76.74;101402.78;3579143;40;20241;-79
2021/07/02 02:11:21;;;;;;;38.90;25.80;;;;;;;17.23;76.93;101404.47;3575802;40;20239;-78
2021/07/02 02:13:47;;;;;;;36.10;26.13;;;;;;;17.24;76.11;101401.03;3568708;40;20517;-78
2021/07/02 02:16:12;;;;;;;34.70;25.87;;;;;;;17.14;76.62;101404.47;3569171;40;20222;-77
2021/07/02 02:18:37;;;;;;;38.20;25.50;;;;;;;17.14;76.08;101402.72;3569017;40;20481;-77
2021/07/02 02:21:02;;;;;;;37.63;27.07;;;;;;;17.00;76.38;101395.81;3569389;40;20245;-77
2021/07/02 02:23:28;;;;;;;34.83;26.97;;;;;;;16.98;76.99;101400.09;3569046;40;20222;-77
2021/07/02 02:25:53;;;;;;;38.10;28.37;;;;;;;16.96;76.62;101399.25;3568983;40;20226;-77
2021/07/02 02:28:18;;;;;;;39.63;25.77;;;;;;;16.98;76.66;101402.69;3578525;40;20320;-77
2021/07/02 02:30:44;;;;;;;35.60;26.43;;;;;;;16.78;77.11;101399.19;3578602;40;20650;-76
2021/07/02 02:33:11;;;;;;;36.30;27.20;;;;;;;16.86;77.46;101407.84;3577809;40;20311;-77
2021/07/02 02:35:36;;;;;;;36.37;26.23;;;;;;;16.91;76.20;101403.56;3579040;40;20228;-77
2021/07/02 02:38:02;;;;;;;32.60;24.27;;;;;;;16.89;75.80;101405.25;3577268;40;20253;-77
2021/07/02 02:40:27;;;;;;;33.50;25.17;;;;;;;16.85;76.12;101416.47;3575753;40;20328;-77
2021/07/02 02:42:52;;;;;;;30.63;23.60;;;;;;;16.90;76.52;101417.34;3574303;40;20323;-77
2021/07/02 02:45:17;;;;;;;38.93;25.47;;;;;;;16.84;76.88;101414.72;3567446;40;20284;-77
2021/07/02 02:47:43;;;;;;;34.83;25.53;;;;;;;16.73;76.55;101419.00;3575876;40;20526;-78
2021/07/02 02:50:09;;;;;;;31.70;24.90;;;;;;;16.70;76.81;101422.44;3578460;40;20238;-78
2021/07/02 02:52:34;;;;;;;37.97;26.40;;;;;;;16.66;76.93;101420.72;3578707;40;20228;-78
2021/07/02 02:54:59;;;;;;;35.37;25.67;;;;;;;16.63;77.25;101414.66;3579216;40;20229;-78
2021/07/02 02:57:25;;;;;;;39.13;26.73;;;;;;;16.57;76.96;101423.25;3579797;40;20237;-77
2021/07/02 02:59:50;;;;;;;34.43;25.77;;;;;;;16.59;77.29;101418.97;3582711;40;20248;-78
2021/07/02 03:02:15;;;;;;;36.03;23.63;;;;;;;16.62;76.76;101428.47;3578893;40;20238;-78
2021/07/02 03:04:40;;;;;;;34.80;24.03;;;;;;;16.59;77.06;101424.16;3575600;40;20835;-77
2021/07/02 03:07:07;;;;;;;37.20;25.63;;;;;;;16.62;76.49;101421.56;3569881;40;20230;-77
2021/07/02 03:09:33;;;;;;;31.97;22.73;;;;;;;16.76;76.49;101427.63;3576852;40;20237;-77
2021/07/02 03:11:58;;;;;;;32.23;24.83;;;;;;;16.71;76.42;101434.53;3580425;40;20608;-78
2021/07/02 03:14:24;;;;;;;34.23;25.00;;;;;;;16.65;76.66;101441.38;3578503;40;20230;-77
2021/07/02 03:16:50;;;;;;;30.60;23.67;;;;;;;16.57;76.76;101433.59;3568631;40;20222;-78
2021/07/02 03:19:16;;;;;;;32.67;24.03;;;;;;;16.60;76.61;101433.63;3568722;40;20226;-79
2021/07/02 03:21:42;;;;;;;33.73;25.40;;;;;;;16.50;77.20;101433.56;3570055;40;20246;-77
2021/07/02 03:24:08;;;;;;;32.13;23.73;;;;;;;16.56;77.07;101431.88;3573557;40;20262;-78
2021/07/02 03:26:34;;;;;;;34.83;23.67;;;;;;;16.55;76.62;101437.03;3578050;40;20238;-76
2021/07/02 03:28:59;;;;;;;33.27;25.17;;;;;;;16.56;76.38;101449.97;3573749;40;20231;-78
2021/07/02 03:31:25;;;;;;;32.37;24.77;;;;;;;16.42;76.52;101443.00;3577890;40;20237;-77
2021/07/02 03:33:50;;;;;;;33.80;22.67;;;;;;;16.41;76.78;101449.91;3578930;40;20825;-78
2021/07/02 03:36:16;;;;;;;33.30;24.37;;;;;;;16.56;76.74;101449.97;3579402;40;20820;-78
2021/07/02 03:38:41;;;;;;;35.60;24.10;;;;;;;16.57;76.68;101449.13;3579813;40;20327;-77
2021/07/02 03:41:07;;;;;;;36.57;25.27;;;;;;;16.59;76.21;101450.00;3579764;40;20248;-78
2021/07/02 03:43:32;;;;;;;36.70;24.93;;;;;;;16.56;76.74;101455.16;3576044;40;20226;-78
2021/07/02 03:45:57;;;;;;;33.03;23.37;;;;;;;16.54;77.02;101451.69;3570128;40;20233;-78
2021/07/02 03:48:22;;;;;;;36.57;24.90;;;;;;;16.53;76.61;101455.13;3568758;40;20564;-78
2021/07/02 03:50:48;;;;;;;31.33;21.90;;;;;;;16.65;76.32;101452.63;3569471;40;20253;-78
2021/07/02 03:53:13;;;;;;;32.83;23.70;;;;;;;16.65;76.57;101454.31;3577458;40;20223;-78
2021/07/02 03:55:38;;;;;;;36.97;24.63;;;;;;;16.61;76.17;101456.03;3569704;40;20221;-78
2021/07/02 03:58:04;;;;;;;34.47;24.67;;;;;;;16.57;76.39;101461.19;3576934;40;20238;-78
2021/07/02 04:00:29;;;;;;;39.57;25.87;;;;;;;16.55;76.52;101468.06;3569671;40;20258;-78
2021/07/02 04:02:55;;;;;;;33.63;24.83;;;;;;;16.65;76.39;101468.13;3569829;40;20298;-78
2021/07/02 04:05:20;;;;;;;43.10;25.17;;;;;;;16.68;76.32;101472.44;3569632;40;20521;-78
2021/07/02 04:07:45;;;;;;;35.03;24.47;;;;;;;16.61;75.99;101479.31;3569881;40;20258;-77
2021/07/02 04:10:11;;;;;;;32.33;24.13;;;;;;;16.64;76.04;101469.00;3569760;40;20233;-77
2021/07/02 04:12:36;;;;;;;33.80;24.20;;;;;;;16.69;76.38;101475.06;3577055;40;20230;-78
2021/07/02 04:15:03;;;;;;;30.77;24.00;;;;;;;16.58;76.95;101481.03;3558113;40;20240;-78
2021/07/02 04:17:28;;;;;;;31.23;22.33;;;;;;;16.60;77.29;101479.28;3572348;40;20610;-77
2021/07/02 04:19:54;;;;;;;32.83;25.23;;;;;;;16.62;76.96;101482.78;3575280;40;20246;-78
2021/07/02 04:22:19;;;;;;;35.60;25.40;;;;;;;16.68;76.68;101482.78;3569375;40;20505;-78
2021/07/02 04:24:44;;;;;;;33.53;24.93;;;;;;;16.66;76.31;101487.06;3577474;40;20296;-77
2021/07/02 04:27:10;;;;;;;35.67;26.63;;;;;;;16.59;76.54;101491.38;3570031;40;20227;-77
2021/07/02 04:29:36;;;;;;;38.37;26.67;;;;;;;16.62;77.12;101487.94;3569194;40;20237;-77
2021/07/02 04:32:01;;;;;;;37.60;26.00;;;;;;;16.75;76.37;101484.53;3574138;40;20222;-77
2021/07/02 04:34:26;;;;;;;42.00;27.47;;;;;;;16.73;76.50;101486.25;3578623;40;20232;-78
2021/07/02 04:36:51;;;;;;;34.00;25.27;;;;;;;17.03;75.66;101476.91;3579225;40;20268;-77
2021/07/02 04:39:19;;;;;;;35.57;24.17;;;;;;;16.94;75.22;101487.22;3579588;40;20237;-78
2021/07/02 04:41:44;;;;;;;35.43;24.23;;;;;;;17.02;75.17;101482.94;3579140;40;20635;-77
2021/07/02 04:44:10;;;;;;;29.07;22.17;;;;;;;17.06;74.92;101483.81;3579356;40;20238;-78
2021/07/02 04:46:35;;;;;;;33.47;23.87;;;;;;;17.14;74.03;101482.97;3579440;40;20283;-77
2021/07/02 04:49:00;;;;;;;31.67;23.33;;;;;;;17.11;74.44;101482.09;3576832;40;20249;-78
2021/07/02 04:51:26;;;;;;;33.07;23.30;;;;;;;17.01;73.92;101491.56;3568119;40;20242;-78
2021/07/02 04:53:51;;;;;;;32.80;22.63;;;;;;;16.93;75.14;101497.56;3569849;40;20226;-78
2021/07/02 04:56:16;;;;;;;32.13;23.40;;;;;;;16.85;75.35;101494.09;3568975;40;20602;-78
2021/07/02 04:58:43;;;;;;;32.93;24.03;;;;;;;16.82;75.04;101505.28;3576377;40;20312;-77
2021/07/02 05:01:08;;;;;;;30.57;24.70;;;;;;;16.88;75.11;101492.38;3581130;40;20314;-77
2021/07/02 05:03:34;;;;;;;34.40;22.97;;;;;;;16.95;74.65;101494.13;3577938;40;20269;-78
2021/07/02 05:06:03;;;;;;;32.20;23.90;;;;;;;17.03;74.57;101497.59;3578289;40;20229;-77
2021/07/02 05:08:28;;;;;;;34.13;24.93;;;;;;;16.94;74.22;101496.72;3577903;40;20620;-77
2021/07/02 05:10:53;;;;;;;31.57;23.70;;;;;;;17.10;74.26;101506.25;3571784;40;20250;-77
2021/07/02 05:13:19;;;;;;;30.33;22.53;;;;;;;17.27;72.86;101510.63;3569374;40;20218;-78
2021/07/02 05:15:44;;;;;;;28.37;22.87;;;;;;;17.36;73.31;101515.81;3558304;40;20339;-77
2021/07/02 05:18:09;;;;;;;28.10;23.17;;;;;;;17.55;72.69;101511.59;3568153;40;20230;-77
2021/07/02 05:20:34;;;;;;;30.10;23.33;;;;;;;17.24;72.71;101517.53;3569283;40;20249;-76
2021/07/02 05:23:00;;;;;;;30.17;23.10;;;;;;;17.19;73.11;101527.00;3573460;40;20230;-77
2021/07/02 05:25:25;;;;;;;30.53;22.50;;;;;;;17.37;73.07;101520.13;3569229;40;20590;-78
2021/07/02 05:27:50;;;;;;;31.33;21.40;;;;;;;17.31;72.16;101514.94;3568141;40;20253;-77
2021/07/02 05:30:16;;;;;;;29.77;21.63;;;;;;;17.28;72.02;101520.16;3568769;40;20289;-77
2021/07/02 05:32:42;;;;;;;27.67;21.83;;;;;;;17.23;72.16;101513.22;3568868;40;20227;-78
2021/07/02 05:35:08;;;;;;;31.20;21.90;;;;;;;17.30;72.38;101517.53;3568893;40;20214;-77
2021/07/02 05:37:34;;;;;;;29.00;21.00;;;;;;;17.34;72.27;101516.69;3574620;40;20248;-76
2021/07/02 05:39:59;;;;;;;31.57;21.93;;;;;;;17.38;72.72;101519.31;3570605;40;20856;-77
2021/07/02 05:42:25;;;;;;;30.13;23.13;;;;;;;17.39;72.42;101517.56;3569474;40;20223;-77
2021/07/02 05:44:51;;;;;;;27.73;19.83;;;;;;;17.67;71.75;101509.00;3568201;40;20317;-77
2021/07/02 05:47:16;;;;;;;30.57;20.60;;;;;;;17.67;71.59;101506.41;3572138;40;20277;-77
2021/07/02 05:49:41;;;;;;;30.80;19.87;;;;;;;17.89;71.44;101503.88;3569516;40;20317;-77
2021/07/02 05:52:07;;;;;;;21.80;17.43;;;;;;;18.05;71.07;101500.38;3577818;40;20224;-76
2021/07/02 05:54:32;;;;;;;24.33;18.83;;;;;;;18.04;70.14;101503.84;3579626;40;20311;-77
2021/07/02 05:56:58;;;;;;;27.07;18.57;;;;;;;18.16;69.87;101506.44;3579197;40;20234;-78
2021/07/02 05:59:23;;;;;;;24.10;18.23;;;;;;;18.18;69.68;101509.00;3579115;40;20225;-76
2021/07/02 06:01:48;;;;;;;30.03;19.13;;;;;;;18.50;69.11;101521.13;3578667;40;20245;-77
2021/07/02 06:04:14;;;;;;;28.33;18.97;;;;;;;18.66;67.87;101514.16;3579215;40;20520;-77
2021/07/02 06:06:40;;;;;;;26.43;18.80;;;;;;;18.72;68.63;101519.34;3578146;40;20233;-78
2021/07/02 06:09:05;;;;;;;22.10;17.10;;;;;;;18.51;68.66;101516.81;3578777;40;20240;-77
2021/07/02 06:11:30;;;;;;;23.37;16.90;;;;;;;18.41;68.33;101513.34;3569260;40;21015;-77
2021/07/02 06:13:55;;;;;;;22.73;16.53;;;;;;;18.30;68.91;101521.97;3569440;40;20222;-78
2021/07/02 06:16:21;;;;;;;23.13;17.60;;;;;;;18.17;69.38;101517.66;3561918;40;20262;-77
2021/07/02 06:18:46;;;;;;;23.97;18.30;;;;;;;18.28;70.08;101516.78;3569248;40;20246;-77
2021/07/02 06:21:12;;;;;;;21.03;17.10;;;;;;;18.45;69.38;101516.81;3570985;40;20241;-78
2021/07/02 06:23:38;;;;;;;22.77;16.87;;;;;;;18.45;68.23;101522.00;3576128;40;20515;-78
2021/07/02 06:26:05;;;;;;;19.90;14.30;;;;;;;18.57;68.45;101525.41;3579379;40;20335;-77
2021/07/02 06:28:31;;;;;;;27.37;17.83;;;;;;;18.39;69.08;101516.81;3578092;40;20238;-76
2021/07/02 06:30:57;;;;;;;21.07;16.80;;;;;;;18.43;68.26;101523.72;3579086;40;20237;-77
2021/07/02 06:33:23;;;;;;;22.13;16.97;;;;;;;18.36;67.94;101524.59;3573262;40;20305;-77
2021/07/02 06:35:49;;;;;;;25.70;17.83;;;;;;;18.29;68.81;101528.88;3570034;40;20262;-77
2021/07/02 06:38:16;;;;;;;23.20;17.67;;;;;;;18.07;68.78;101523.72;3577818;40;20245;-77
2021/07/02 06:40:43;;;;;;;23.03;18.10;;;;;;;18.12;68.95;101527.19;3578941;40;20504;-76
2021/07/02 06:43:09;;;;;;;24.67;18.27;;;;;;;18.01;69.12;101537.53;3570599;40;20242;-77
2021/07/02 06:45:34;;;;;;;21.93;16.87;;;;;;;17.87;69.65;101539.25;3568957;40;20237;-77
2021/07/02 06:48:02;;;;;;;23.13;19.13;;;;;;;17.88;69.89;101537.53;3569088;40;20211;-77
2021/07/02 06:50:36;;;;;;;24.30;18.73;;;;;;;18.09;68.89;101534.94;3567790;40;20332;-78
2021/07/02 06:53:04;;;;;;;26.37;18.87;;;;;;;18.04;69.18;101534.09;3569211;40;20923;-77
2021/07/02 06:55:30;;;;;;;22.23;17.33;;;;;;;17.89;69.99;101540.16;3567840;40;20230;-77
2021/07/02 06:57:55;;;;;;;26.37;19.53;;;;;;;17.88;70.10;101542.72;3568023;40;20222;-77
2021/07/02 07:00:22;;;;;;;27.70;19.47;;;;;;;18.00;70.31;101538.41;3570101;40;20414;-77
2021/07/02 07:02:48;;;;;;;28.37;19.83;;;;;;;18.05;70.19;101539.28;3569153;40;20233;-77
2021/07/02 07:05:14;;;;;;;24.27;17.70;;;;;;;18.17;68.86;101538.41;3569041;40;20246;-76
2021/07/02 07:07:40;;;;;;;22.50;17.33;;;;;;;18.34;67.87;101536.72;3578882;40;20229;-77
2021/07/02 07:10:06;;;;;;;25.30;17.90;;;;;;;18.26;68.07;101536.69;3573853;40;20238;-76
2021/07/02 07:12:31;;;;;;;22.70;17.23;;;;;;;18.42;68.17;101538.41;3569032;40;20266;-76
2021/07/02 07:14:58;;;;;;;20.57;17.07;;;;;;;18.79;66.64;101541.81;3570848;40;20222;-77
2021/07/02 07:17:23;;;;;;;22.83;17.00;;;;;;;18.82;65.84;101536.59;3558379;40;20253;-78
2021/07/02 07:19:48;;;;;;;25.17;16.27;;;;;;;18.97;65.69;101539.16;3568358;40;20294;-77
2021/07/02 07:22:14;;;;;;;21.50;15.77;;;;;;;18.98;64.91;101539.13;3568708;40;20231;-78
2021/07/02 07:24:39;;;;;;;20.77;15.77;;;;;;;18.91;65.80;101540.03;3568741;40;20227;-76
2021/07/02 07:27:04;;;;;;;20.20;15.57;;;;;;;18.88;65.17;101536.59;3568266;40;20355;-78
2021/07/02 07:29:30;;;;;;;20.83;15.77;;;;;;;18.81;65.59;101546.13;3570353;40;20226;-77
2021/07/02 07:31:56;;;;;;;22.47;16.33;;;;;;;18.70;66.25;101549.63;3578517;40;20616;-77
2021/07/02 07:35:12;;;;;;;20.80;17.10;;;;;;;18.82;65.59;101541.78;3578536;40;20508;-77
2021/07/02 07:37:13;;;;;;;22.07;16.50;;;;;;;19.21;64.10;101542.50;3577898;40;20281;-77
2021/07/02 07:39:38;;;;;;;22.50;17.20;;;;;;;19.76;63.01;101541.34;3578235;40;20228;-77
2021/07/02 07:42:04;;;;;;;20.13;16.10;;;;;;;20.55;61.51;101541.59;3578996;40;20238;-78
2021/07/02 07:44:30;;;;;;;20.37;15.87;;;;;;;20.86;59.97;101535.19;3579341;40;20323;-78
2021/07/02 07:46:55;;;;;;;21.17;16.73;;;;;;;20.45;60.66;101524.34;3578803;40;20644;-77
2021/07/02 07:49:22;;;;;;;19.47;14.73;;;;;;;20.73;60.02;101521.41;3580073;40;20241;-78
2021/07/02 07:51:54;;;;;;;18.60;15.00;;;;;;;21.14;60.46;101521.00;3579173;40;20292;-78
2021/07/02 07:54:20;;;;;;;18.20;14.30;;;;;;;21.49;58.22;101519.63;3579278;40;20248;-78
2021/07/02 07:56:52;;;;;;;19.40;15.10;;;;;;;21.43;57.97;101511.88;3579640;40;20242;-78
2021/07/02 07:59:19;;;;;;;17.47;14.90;;;;;;;21.87;57.01;101508.63;3580585;40;20238;-78
2021/07/02 08:01:45;;;;;;;18.23;14.17;;;;;;;22.02;56.39;101513.63;3578846;40;20253;-78
2021/07/02 08:04:13;;;;;;;19.13;15.00;;;;;;;22.63;55.75;101521.22;3580254;40;20690;-78
2021/07/02 08:06:39;;;;;;;19.13;14.47;;;;;;;22.60;55.10;101518.69;3580424;40;20232;-78
2021/07/02 08:09:04;;;;;;;19.10;14.97;;;;;;;22.18;55.07;101517.66;3580013;40;20226;-76
2021/07/02 08:11:29;;;;;;;18.07;14.67;;;;;;;22.23;55.51;101518.44;3570218;40;20254;-77
2021/07/02 08:13:54;;;;;;;16.40;14.50;;;;;;;22.62;55.24;101520.38;3570205;40;20565;-78
2021/07/02 08:16:20;;;;;;;18.97;14.73;;;;;;;22.46;55.53;101529.38;3561938;40;20241;-78
2021/07/02 08:18:45;;;;;;;18.30;13.43;;;;;;;22.79;54.46;101525.28;3570198;40;20230;-78
2021/07/02 08:21:10;;;;;;;16.97;14.07;;;;;;;22.41;55.25;101523.34;3577627;40;20254;-77
2021/07/02 08:23:35;;;;;;;17.80;14.53;;;;;;;22.33;55.32;101528.72;3576050;40;20249;-78
2021/07/02 08:26:01;;;;;;;19.93;15.00;;;;;;;22.52;56.20;101526.69;3570657;40;20219;-77
2021/07/02 08:31:10;;;;;;;15.60;13.75;;;;;;;21.83;56.82;101535.66;3570177;40;20244;-78
2021/07/02 08:33:35;;;;;;;16.93;13.97;;;;;;;21.49;58.23;101537.00;3570698;40;20667;-78
2021/07/02 08:36:00;;;;;;;16.43;13.40;;;;;;;21.32;57.81;101536.34;3569045;40;20235;-77
2021/07/02 08:38:27;;;;;;;17.27;13.53;;;;;;;21.21;57.68;101530.44;3570153;40;20242;-77
2021/07/02 08:40:53;;;;;;;17.13;13.13;;;;;;;20.98;58.43;101529.84;3569978;40;20250;-77
2021/07/02 08:43:18;;;;;;;14.77;12.43;;;;;;;21.16;57.63;101540.94;3570146;40;20249;-78
2021/07/02 08:45:45;;;;;;;16.50;13.23;;;;;;;21.17;58.26;101532.22;3570191;40;20609;-78
2021/07/02 08:48:10;;;;;;;15.67;12.27;;;;;;;22.12;54.85;101530.84;3570504;40;20246;-78
2021/07/02 08:50:37;;;;;;;16.50;12.63;;;;;;;23.03;53.08;101530.00;3570066;40;20760;-79
2021/07/02 08:53:04;;;;;;;15.43;12.60;;;;;;;23.83;50.55;101529.97;3570881;40;20230;-76
2021/07/02 08:55:29;;;;;;;15.50;12.87;;;;;;;23.75;52.43;101536.28;3570490;40;20267;-76
2021/07/02 08:57:54;;;;;;;15.60;13.17;;;;;;;23.39;52.16;101535.34;3568443;40;20648;-76
2021/07/02 09:00:20;;;;;;;15.38;13.55;;;;;;;22.53;55.11;101535.34;3569466;40;20242;-76
2021/07/02 09:02:46;;;;;;;19.77;15.23;;;;;;;22.05;56.45;101534.41;3572382;40;20227;-77
2021/07/02 09:05:33;;;;;;;20.13;14.47;;;;;;;21.75;58.15;101537.53;3568717;40;20236;-76
2021/07/02 09:08:00;;;;;;;18.58;13.43;;;;;;;21.69;57.08;101537.63;3569506;40;20225;-76
2021/07/02 09:10:35;;;;;;;16.57;14.17;;;;;;;21.86;57.26;101539.06;3577531;40;20318;-77
2021/07/02 09:13:01;;;;;;;17.02;13.57;;;;;;;21.87;57.52;101537.31;3579646;40;20643;-76
2021/07/02 09:15:27;;;;;;;22.00;15.27;;;;;;;21.97;57.55;101544.97;3578626;40;20250;-77
2021/07/02 09:17:58;;;;;;;19.37;14.97;;;;;;;22.67;55.80;101543.78;3569478;40;20257;-77
2021/07/02 09:20:47;;;;;;;17.70;14.47;;;;;;;22.74;54.61;101540.19;3579361;40;20245;-77
2021/07/02 09:23:14;;;;;;;18.63;14.97;;;;;;;22.65;55.34;101549.03;3575828;40;20239;-77
2021/07/02 09:25:48;;;;;;;19.83;15.93;;;;;;;22.38;56.67;101552.09;3569656;40;20230;-77
2021/07/02 09:28:15;;;;;;;22.42;17.45;;;;;;;22.12;57.66;101554.31;3569600;40;20234;-77
2021/07/02 09:30:45;;;;;;;26.77;16.98;;;;;;;21.76;57.75;101558.38;3572888;40;20240;-76
2021/07/02 09:33:13;;;;;;;22.40;16.17;;;;;;;21.61;58.75;101561.13;3579416;40;20311;-76
2021/07/02 09:35:54;;;;;;;24.40;17.20;;;;;;;21.46;58.82;101563.97;3574571;40;20321;-77
2021/07/02 09:38:32;;;;;;;21.00;16.97;;;;;;;21.56;58.40;101565.56;3576424;40;20257;-76
2021/07/02 09:40:57;;;;;;;20.27;15.20;;;;;;;22.27;57.12;101560.16;3578026;40;20638;-76
2021/07/02 09:43:26;;;;;;;20.20;15.53;;;;;;;22.86;54.39;101555.59;3578465;40;20234;-76
2021/07/02 09:45:57;;;;;;;17.13;14.50;;;;;;;23.48;52.94;101563.91;3579183;40;20330;-77
2021/07/02 09:48:27;;;;;;;21.20;14.70;;;;;;;23.43;52.71;101564.94;3579277;40;20232;-76
2021/07/02 09:50:53;;;;;;;17.88;14.07;;;;;;;22.95;53.67;101569.38;3578981;40;20276;-76
2021/07/02 09:53:25;;;;;;;20.13;14.38;;;;;;;22.78;54.60;101565.38;3577816;40;20605;-77
2021/07/02 09:55:56;;;;;;;17.65;14.23;;;;;;;23.17;52.63;101560.22;3578978;40;20237;-76
2021/07/02 09:58:41;;;;;;;15.82;12.40;;;;;;;23.12;53.86;101564.69;3578170;40;20237;-76
2021/07/02 10:01:09;;;;;;;17.52;13.85;;;;;;;22.83;53.93;101569.59;3579172;40;20248;-77
2021/07/02 10:03:40;;;;;;;16.92;12.82;;;;;;;22.63;54.07;101563.91;3578337;40;20233;-76
2021/07/02 10:06:14;;;;;;;16.23;12.75;;;;;;;23.57;50.93;101565.47;3579214;40;20317;-78
2021/07/02 10:08:40;;;;;;;17.25;13.50;;;;;;;23.64;52.54;101554.84;3578983;40;20311;-77
2021/07/02 10:11:11;;;;;;;18.35;13.90;;;;;;;23.57;52.23;101558.47;3570910;40;20257;-76
2021/07/02 10:13:39;;;;;;;16.67;12.27;;;;;;;23.72;51.69;101567.75;3568554;40;20346;-76
2021/07/02 10:16:07;;;;;;;15.77;12.90;;;;;;;23.98;50.71;101562.81;3560483;40;20222;-77
2021/07/02 10:18:37;;;;;;;14.90;11.97;;;;;;;24.87;48.60;101556.97;3569438;40;20668;-75
2021/07/02 10:21:03;;;;;;;12.23;10.90;;;;;;;25.75;47.08;101548.25;3568424;40;20246;-77
2021/07/02 10:23:56;;;;;;;14.20;11.50;;;;;;;25.35;47.37;101560.00;3573044;40;20222;-76
2021/07/02 10:26:25;;;;;;;11.80;10.40;;;;;;;24.54;48.42;101560.47;3579355;40;20249;-76
2021/07/02 10:28:53;;;;;;;14.43;11.23;;;;;;;23.51;50.95;101555.13;3578432;40;20587;-78
2021/07/02 10:31:19;;;;;;;12.38;10.82;;;;;;;23.16;52.54;101562.84;3571092;40;20238;-76
2021/07/02 10:33:47;;;;;;;14.10;11.23;;;;;;;24.38;50.35;101556.53;3572955;40;20226;-76
2021/07/02 10:36:17;;;;;;;14.27;10.10;;;;;;;25.00;47.11;101560.97;3578172;40;20221;-76
2021/07/02 10:38:48;;;;;;;11.85;10.23;;;;;;;25.39;46.96;101557.25;3573010;40;20272;-78
2021/07/02 10:41:22;;;;;;;10.57;9.45;;;;;;;26.00;45.68;101559.69;3574488;40;20247;-76
2021/07/02 10:44:11;;;;;;;13.35;10.23;;;;;;;26.23;44.66;101557.19;3577432;40;20617;-77
2021/07/02 10:46:48;;;;;;;11.98;9.20;;;;;;;26.78;43.74;101545.63;3577941;40;20234;-76
2021/07/02 10:49:14;;;;;;;10.48;9.20;;;;;;;27.20;42.03;101542.34;3578353;40;20237;-77
2021/07/02 10:51:50;;;;;;;10.60;8.88;;;;;;;26.38;43.18;101546.16;3576212;40;20246;-78
2021/07/02 10:54:15;;;;;;;10.70;9.68;;;;;;;26.19;44.50;101554.69;3571524;40;20335;-77
2021/07/02 10:56:45;;;;;;;11.45;9.38;;;;;;;25.31;47.13;101551.34;3569481;40;20898;-77
2021/07/02 10:59:14;;;;;;;10.55;8.23;;;;;;;24.98;47.10;101544.44;3569540;40;20218;-78
2021/07/02 11:02:04;;;;;;;11.70;8.77;;;;;;;25.51;45.85;101548.97;3568913;40;20257;-77
2021/07/02 11:04:46;;;;;;;10.07;8.63;;;;;;;26.09;44.40;101543.66;3572333;40;20613;-74
2021/07/02 11:07:14;;;;;;;10.33;8.50;;;;;;;26.46;42.81;101541.50;3576448;40;20263;-77
2021/07/02 11:09:49;;;;;;;9.20;7.15;;;;;;;26.90;42.08;101538.16;3574246;40;20448;-77
2021/07/02 11:12:16;;;;;;;11.55;9.23;;;;;;;26.83;42.54;101539.31;3571585;40;20283;-76